Terminal Aerodrome Forecast
Issued by NWS

Home | Current Version | Previous Version | Text Only | Print | Product List | Glossary On
Versions: 1 2 3 4 5 6 7 8 9 10 11 12 13 14 15 16 17 18 19
053
FTUS43 KILX 270804 AAA
TAFBMI
TAF AMD
KBMI 270804Z 2708/2806 20009KT P6SM VCSH SCT035 OVC070
     FM271100 18007KT P6SM VCSH BKN045
     FM271600 17013KT P6SM OVC070
     FM272100 18015G22KT P6SM VCTS SCT030CB BKN050
     FM280100 16011KT P6SM VCTS SCT025CB BKN040=

USA.gov is the U.S. government's official web portal to all federal, state and local government web resources and services.